Monte Carlo, Brazil
Current Conditions -  °F | °C
As of 3:00 PM on Sunday 23 Nov 2014 (Local Time) from SBCH Reporting Station
Few Clouds Few Clouds  
Wind Chill: 81°   Ceiling: Unl
Heat Index: 81°   Visibility: 6mi
Dew Point: 55°   Wind: 7mph
Humidity: 42%   Direction: 50°NE
Pressure: 29.97"   Gusts: NA
Location:  27.22°S, 50.98°W
Report Text: SBCH 231700Z 05006KT 9999 FEW040 27/13 Q1015
Loading
Personal Weather Stations






























Interactive Weather Map New forecast layout! Learn more

10-Day Weather Forecast

Advertisements
Track Severe Weather on mobile